Time;durP1;ratioP1;P1;durP2;ratioP2;P2;SDS_P1;SDS_P2;PMS_P1;PMS_P2;Temp;Humidity;BMP_temperature;BMP_pressure;BME280_temperature;BME280_humidity;BME280_pressure;Samples;Min_cycle;Max_cycle;Signal;HPM_P1;HPM_P2
2023/04/01 00:01:09;;;;;;;5.60;1.10;;;;;;;;;;4937353;29;20048;-80
2023/04/01 00:03:36;;;;;;;4.50;1.30;;;;;;;;;;4936819;29;20575;-80
2023/04/01 00:06:04;;;;;;;4.50;0.90;;;;;;;;;;4936388;29;20395;-80
2023/04/01 00:08:30;;;;;;;5.30;1.02;;;;;;;;;;4935554;29;20267;-78
2023/04/01 00:11:00;;;;;;;3.65;0.90;;;;;;;;;;4951609;29;20051;-79
2023/04/01 00:13:27;;;;;;;2.78;0.90;;;;;;;;;;4937863;29;20051;-79
2023/04/01 00:15:56;;;;;;;5.40;1.00;;;;;;;;;;4937282;29;20043;-80
2023/04/01 00:18:28;;;;;;;5.22;1.00;;;;;;;;;;4935492;29;20118;-80
2023/04/01 00:20:54;;;;;;;9.43;1.27;;;;;;;;;;4935700;29;20671;-80
2023/04/01 00:23:21;;;;;;;8.40;0.90;;;;;;;;;;4941078;29;20712;-80
2023/04/01 00:25:48;;;;;;;5.35;0.93;;;;;;;;;;4936034;29;20055;-80
2023/04/01 00:28:21;;;;;;;4.47;0.80;;;;;;;;;;4937241;29;20099;-80
2023/04/01 00:30:48;;;;;;;5.03;0.80;;;;;;;;;;4936169;29;20709;-77
2023/04/01 00:33:15;;;;;;;8.57;1.27;;;;;;;;;;4932137;29;20083;-79
2023/04/01 00:35:41;;;;;;;4.43;1.02;;;;;;;;;;4934730;29;20058;-79
2023/04/01 00:38:11;;;;;;;4.03;1.08;;;;;;;;;;4934407;29;20136;-80
2023/04/01 00:40:42;;;;;;;6.55;0.90;;;;;;;;;;4934489;29;20043;-79
2023/04/01 00:43:12;;;;;;;3.15;0.80;;;;;;;;;;4937151;29;20075;-79
2023/04/01 00:45:40;;;;;;;8.50;1.17;;;;;;;;;;4935302;29;20043;-78
2023/04/01 00:48:10;;;;;;;4.38;0.90;;;;;;;;;;4938363;29;20051;-79
2023/04/01 00:50:38;;;;;;;5.43;0.90;;;;;;;;;;4940649;29;20050;-79
2023/04/01 00:53:05;;;;;;;4.55;0.93;;;;;;;;;;4938163;29;20047;-77
2023/04/01 00:55:36;;;;;;;8.43;1.15;;;;;;;;;;4945017;29;20095;-78
2023/04/01 00:58:05;;;;;;;4.82;1.15;;;;;;;;;;4945410;29;20112;-79
2023/04/01 01:00:32;;;;;;;7.25;1.08;;;;;;;;;;4948354;29;20043;-79
2023/04/01 01:03:02;;;;;;;4.20;1.10;;;;;;;;;;4945977;29;20147;-79
2023/04/01 01:05:45;;;;;;;3.30;0.73;;;;;;;;;;4946952;29;20083;-79
2023/04/01 01:08:30;;;;;;;9.40;1.20;;;;;;;;;;4947325;29;20047;-78
2023/04/01 01:10:56;;;;;;;5.50;0.95;;;;;;;;;;4938404;29;20043;-78
2023/04/01 01:13:34;;;;;;;5.18;0.98;;;;;;;;;;4935265;29;20071;-79
2023/04/01 01:16:03;;;;;;;8.50;1.15;;;;;;;;;;4935627;29;20073;-79
2023/04/01 01:18:59;;;;;;;4.95;1.00;;;;;;;;;;4933374;29;20052;-78
2023/04/01 01:21:49;;;;;;;2.72;0.90;;;;;;;;;;4915319;29;20044;-77
2023/04/01 01:24:29;;;;;;;6.35;1.30;;;;;;;;;;4932506;29;20084;-79
2023/04/01 01:27:02;;;;;;;5.70;1.10;;;;;;;;;;4934613;29;20048;-78
2023/04/01 01:29:29;;;;;;;2.47;0.90;;;;;;;;;;4926273;29;20138;-79
2023/04/01 01:32:08;;;;;;;11.60;1.20;;;;;;;;;;4933336;29;20131;-79
2023/04/01 01:34:53;;;;;;;10.68;1.15;;;;;;;;;;4932052;29;20272;-79
2023/04/01 01:37:22;;;;;;;11.55;1.20;;;;;;;;;;4933260;29;20043;-78
2023/04/01 01:39:53;;;;;;;8.38;1.40;;;;;;;;;;4930730;29;20048;-79
2023/04/01 01:42:20;;;;;;;8.43;1.35;;;;;;;;;;4932830;29;20130;-78
2023/04/01 01:44:48;;;;;;;7.93;1.25;;;;;;;;;;4935164;29;20059;-79
2023/04/01 01:47:16;;;;;;;7.32;1.20;;;;;;;;;;4934522;29;20043;-79
2023/04/01 01:49:45;;;;;;;7.25;1.30;;;;;;;;;;4933538;29;20637;-78
2023/04/01 01:52:12;;;;;;;9.23;1.45;;;;;;;;;;4935208;29;20043;-80
2023/04/01 01:54:53;;;;;;;6.75;1.38;;;;;;;;;;4933230;29;20352;-78
2023/04/01 01:57:30;;;;;;;7.55;1.38;;;;;;;;;;4934509;29;20067;-79
2023/04/01 02:00:02;;;;;;;10.27;1.42;;;;;;;;;;4918068;29;20094;-79
2023/04/01 02:02:42;;;;;;;10.07;1.85;;;;;;;;;;4934117;29;20052;-78
2023/04/01 02:05:10;;;;;;;6.13;1.23;;;;;;;;;;4942170;28;20046;-79
2023/04/01 02:07:37;;;;;;;10.32;1.40;;;;;;;;;;4955931;28;20047;-78
2023/04/01 02:10:04;;;;;;;8.68;1.90;;;;;;;;;;4953273;28;20386;-79
2023/04/01 02:12:33;;;;;;;5.30;1.17;;;;;;;;;;4953066;28;20077;-79
2023/04/01 02:15:05;;;;;;;8.30;1.50;;;;;;;;;;4953669;29;20123;-80
2023/04/01 02:17:33;;;;;;;7.07;1.58;;;;;;;;;;4936776;28;20042;-77
2023/04/01 02:20:04;;;;;;;9.13;1.60;;;;;;;;;;4933518;29;20070;-81
2023/04/01 02:22:33;;;;;;;7.72;1.50;;;;;;;;;;4937667;29;20062;-78
2023/04/01 02:25:10;;;;;;;5.18;1.10;;;;;;;;;;4934229;29;20070;-79
2023/04/01 02:27:38;;;;;;;8.07;1.05;;;;;;;;;;4934704;29;20567;-79
2023/04/01 02:30:05;;;;;;;6.00;1.13;;;;;;;;;;4933949;29;20118;-79
2023/04/01 02:32:33;;;;;;;6.25;1.52;;;;;;;;;;4937352;29;20110;-81
2023/04/01 02:35:03;;;;;;;6.88;1.02;;;;;;;;;;4939773;29;20044;-79
2023/04/01 02:37:29;;;;;;;7.57;1.70;;;;;;;;;;4939380;29;20111;-79
2023/04/01 02:40:06;;;;;;;5.72;1.13;;;;;;;;;;4936084;29;20055;-80
2023/04/01 02:42:33;;;;;;;5.47;1.08;;;;;;;;;;4937126;29;20067;-80
2023/04/01 02:45:00;;;;;;;6.40;1.00;;;;;;;;;;4936443;29;20452;-81
2023/04/01 02:47:26;;;;;;;6.05;1.20;;;;;;;;;;4936791;29;20484;-80
2023/04/01 02:49:57;;;;;;;6.72;1.27;;;;;;;;;;4935769;29;20244;-80
2023/04/01 02:52:24;;;;;;;4.97;1.20;;;;;;;;;;4938114;29;20047;-80
2023/04/01 02:54:51;;;;;;;11.18;1.15;;;;;;;;;;4935223;29;20056;-79
2023/04/01 02:57:20;;;;;;;8.70;1.20;;;;;;;;;;4938040;29;20043;-80
2023/04/01 02:59:47;;;;;;;2.92;0.85;;;;;;;;;;4934916;29;20107;-80
2023/04/01 03:02:14;;;;;;;8.38;1.02;;;;;;;;;;4935665;29;20040;-80
2023/04/01 03:04:41;;;;;;;5.32;1.00;;;;;;;;;;4935374;29;20123;-79
2023/04/01 03:07:09;;;;;;;7.00;1.30;;;;;;;;;;4937013;29;20500;-78
2023/04/01 03:09:36;;;;;;;5.18;0.80;;;;;;;;;;4935696;29;20657;-78
2023/04/01 03:12:03;;;;;;;9.90;1.17;;;;;;;;;;4936575;29;20126;-79
2023/04/01 03:14:40;;;;;;;6.80;1.13;;;;;;;;;;4935295;29;20039;-78
2023/04/01 03:17:07;;;;;;;6.55;1.10;;;;;;;;;;4938825;29;20055;-79
2023/04/01 03:19:33;;;;;;;4.82;1.15;;;;;;;;;;4934907;29;20052;-80
2023/04/01 03:22:05;;;;;;;4.72;1.10;;;;;;;;;;4936952;29;20043;-79
2023/04/01 03:24:32;;;;;;;10.23;0.90;;;;;;;;;;4934879;29;20048;-79
2023/04/01 03:26:58;;;;;;;11.73;1.17;;;;;;;;;;4932735;29;20764;-80
2023/04/01 03:29:28;;;;;;;4.63;1.20;;;;;;;;;;4937072;29;20040;-81
2023/04/01 03:31:57;;;;;;;6.93;1.17;;;;;;;;;;4936125;29;20475;-81
2023/04/01 03:34:24;;;;;;;5.53;1.13;;;;;;;;;;4937576;29;20071;-80
2023/04/01 03:36:51;;;;;;;4.88;1.00;;;;;;;;;;4937959;29;20055;-80
2023/04/01 03:39:19;;;;;;;7.40;1.40;;;;;;;;;;4934848;29;20115;-79
2023/04/01 03:41:46;;;;;;;7.55;1.42;;;;;;;;;;4934946;29;20076;-81
2023/04/01 03:44:13;;;;;;;10.77;1.27;;;;;;;;;;4938839;29;20047;-80
2023/04/01 03:46:42;;;;;;;8.93;1.15;;;;;;;;;;4938216;29;20099;-80
2023/04/01 03:49:13;;;;;;;4.07;0.75;;;;;;;;;;4937961;29;20313;-80
2023/04/01 03:51:41;;;;;;;6.15;1.13;;;;;;;;;;4940103;29;20058;-80
2023/04/01 03:54:08;;;;;;;6.63;1.15;;;;;;;;;;4939018;29;20075;-81
2023/04/01 03:56:35;;;;;;;6.72;1.00;;;;;;;;;;4919417;29;20051;-80
2023/04/01 03:59:03;;;;;;;4.82;0.90;;;;;;;;;;4934615;29;20154;-80
2023/04/01 04:01:33;;;;;;;3.05;0.73;;;;;;;;;;4937536;29;20147;-79
2023/04/01 04:04:04;;;;;;;4.95;0.80;;;;;;;;;;4934943;29;20070;-80
2023/04/01 04:06:32;;;;;;;7.22;0.98;;;;;;;;;;4934936;29;20067;-80
2023/04/01 04:08:59;;;;;;;4.63;0.90;;;;;;;;;;4934206;29;20111;-80
2023/04/01 04:11:26;;;;;;;7.00;0.93;;;;;;;;;;4934913;29;20050;-79
2023/04/01 04:13:53;;;;;;;9.30;0.90;;;;;;;;;;4936839;29;20040;-78
2023/04/01 04:16:22;;;;;;;3.97;0.73;;;;;;;;;;4935062;29;20094;-79
2023/04/01 04:18:55;;;;;;;6.30;1.00;;;;;;;;;;4934050;29;20055;-79
2023/04/01 04:21:22;;;;;;;3.53;0.90;;;;;;;;;;4937217;29;20071;-79
2023/04/01 04:23:51;;;;;;;7.55;0.98;;;;;;;;;;4933944;29;20051;-79
2023/04/01 04:26:19;;;;;;;6.03;1.00;;;;;;;;;;4933787;29;20067;-80
2023/04/01 04:28:57;;;;;;;8.88;1.20;;;;;;;;;;4918712;29;20056;-80
2023/04/01 04:31:25;;;;;;;8.27;1.08;;;;;;;;;;4936007;29;20099;-79
2023/04/01 04:33:54;;;;;;;3.33;0.90;;;;;;;;;;4933292;29;20054;-78
2023/04/01 04:36:21;;;;;;;10.65;1.02;;;;;;;;;;4932019;29;20071;-80
2023/04/01 04:38:51;;;;;;;7.47;1.10;;;;;;;;;;4935055;29;20040;-79
2023/04/01 04:41:19;;;;;;;8.02;1.27;;;;;;;;;;4933809;29;20086;-79
2023/04/01 04:43:52;;;;;;;4.82;1.02;;;;;;;;;;4917861;29;20051;-79
2023/04/01 04:46:20;;;;;;;8.18;1.33;;;;;;;;;;4933787;29;20048;-78
2023/04/01 04:48:51;;;;;;;6.55;0.90;;;;;;;;;;4932182;29;20052;-79
2023/04/01 04:51:20;;;;;;;7.35;1.02;;;;;;;;;;4940251;28;20047;-80
2023/04/01 04:53:47;;;;;;;7.18;1.23;;;;;;;;;;4940828;29;20222;-79
2023/04/01 04:56:20;;;;;;;8.00;1.25;;;;;;;;;;4940015;29;20051;-79
2023/04/01 04:58:58;;;;;;;7.47;1.00;;;;;;;;;;4937474;28;20612;-79
2023/04/01 05:01:36;;;;;;;3.88;0.80;;;;;;;;;;4932991;29;20420;-79
2023/04/01 05:04:03;;;;;;;7.50;0.88;;;;;;;;;;4931465;29;20075;-80
2023/04/01 05:06:31;;;;;;;4.00;0.90;;;;;;;;;;4930392;29;20051;-79
2023/04/01 05:08:57;;;;;;;1.95;0.70;;;;;;;;;;4910044;29;20139;-82
2023/04/01 05:11:25;;;;;;;4.20;0.88;;;;;;;;;;4936013;29;20058;-81
2023/04/01 05:13:53;;;;;;;6.80;0.90;;;;;;;;;;4947052;28;20047;-80
2023/04/01 05:16:20;;;;;;;10.35;0.98;;;;;;;;;;4943205;28;20043;-80
2023/04/01 05:18:47;;;;;;;7.68;0.95;;;;;;;;;;4944410;28;20560;-79
2023/04/01 05:21:14;;;;;;;6.88;0.95;;;;;;;;;;4940846;28;20047;-78
2023/04/01 05:23:42;;;;;;;3.15;0.60;;;;;;;;;;4925590;28;20054;-78
2023/04/01 05:26:11;;;;;;;6.95;1.10;;;;;;;;;;4937574;28;20047;-79
2023/04/01 05:28:38;;;;;;;6.13;0.80;;;;;;;;;;4930643;29;20056;-80
2023/04/01 05:31:05;;;;;;;9.45;1.27;;;;;;;;;;4932195;29;20081;-79
2023/04/01 05:33:35;;;;;;;7.85;1.55;;;;;;;;;;4941411;29;20099;-78
2023/04/01 05:36:10;;;;;;;4.10;1.27;;;;;;;;;;4938490;29;20416;-81
2023/04/01 05:38:37;;;;;;;3.60;0.73;;;;;;;;;;4937927;29;20055;-78
2023/04/01 05:41:06;;;;;;;3.47;0.93;;;;;;;;;;4937760;28;20047;-77
2023/04/01 05:43:37;;;;;;;4.63;0.93;;;;;;;;;;4942715;28;20047;-78
2023/04/01 05:46:24;;;;;;;6.05;0.82;;;;;;;;;;4935207;28;20066;-77
2023/04/01 05:49:11;;;;;;;11.77;1.13;;;;;;;;;;4935556;28;20063;-77
2023/04/01 05:51:37;;;;;;;4.88;1.00;;;;;;;;;;4964663;28;20067;-77
2023/04/01 05:54:05;;;;;;;5.50;0.90;;;;;;;;;;4941072;28;20079;-78
2023/04/01 05:56:31;;;;;;;4.28;0.82;;;;;;;;;;4923699;28;20117;-77
2023/04/01 05:58:59;;;;;;;6.35;1.00;;;;;;;;;;4938393;29;20039;-77
2023/04/01 06:01:25;;;;;;;4.18;0.60;;;;;;;;;;4945019;28;20055;-78
2023/04/01 06:03:58;;;;;;;3.53;0.65;;;;;;;;;;4942551;29;20043;-78
2023/04/01 06:06:26;;;;;;;3.78;0.68;;;;;;;;;;4940604;29;20523;-78
2023/04/01 06:09:25;;;;;;;5.25;0.90;;;;;;;;;;4943542;28;20047;-79
2023/04/01 06:12:09;;;;;;;6.45;1.15;;;;;;;;;;4934064;29;20600;-80
2023/04/01 06:15:15;;;;;;;4.47;0.82;;;;;;;;;;4930375;29;20299;-78
2023/04/01 06:18:02;;;;;;;5.53;0.90;;;;;;;;;;4927028;29;20107;-78
2023/04/01 06:20:39;;;;;;;7.15;0.88;;;;;;;;;;4929684;29;20138;-80
2023/04/01 06:23:12;;;;;;;4.85;0.80;;;;;;;;;;4930194;29;20056;-78
2023/04/01 06:25:57;;;;;;;3.72;0.75;;;;;;;;;;4924757;29;20191;-78
2023/04/01 06:28:43;;;;;;;3.13;0.80;;;;;;;;;;4929468;29;20044;-80
2023/04/01 06:31:11;;;;;;;4.05;0.50;;;;;;;;;;4930541;29;20048;-80
2023/04/01 06:33:42;;;;;;;5.40;0.80;;;;;;;;;;4913950;29;20109;-79
2023/04/01 06:36:22;;;;;;;4.22;1.10;;;;;;;;;;4936504;29;20043;-79
2023/04/01 06:39:07;;;;;;;4.65;0.80;;;;;;;;;;4930855;29;20071;-80
2023/04/01 06:41:55;;;;;;;6.20;1.17;;;;;;;;;;4918097;29;20476;-81
2023/04/01 06:44:33;;;;;;;4.57;0.80;;;;;;;;;;4931096;29;20171;-79
2023/04/01 06:47:26;;;;;;;4.32;0.70;;;;;;;;;;4899109;29;20051;-79
2023/04/01 06:50:11;;;;;;;4.10;0.70;;;;;;;;;;4927277;29;20111;-80
2023/04/01 06:52:57;;;;;;;6.13;1.00;;;;;;;;;;4919958;29;20062;-78
2023/04/01 06:55:51;;;;;;;3.00;1.02;;;;;;;;;;4930081;29;20070;-77
2023/04/01 06:58:33;;;;;;;5.47;0.82;;;;;;;;;;4928743;29;20044;-80
2023/04/01 07:01:02;;;;;;;6.05;0.88;;;;;;;;;;4930267;29;20055;-80
2023/04/01 07:03:32;;;;;;;7.13;0.90;;;;;;;;;;4929077;29;20706;-79
2023/04/01 07:06:05;;;;;;;4.70;1.00;;;;;;;;;;4914252;29;20191;-80
2023/04/01 07:08:39;;;;;;;4.18;0.80;;;;;;;;;;4927212;29;20626;-82
2023/04/01 07:11:10;;;;;;;6.38;0.90;;;;;;;;;;4913141;29;20051;-80
2023/04/01 07:13:59;;;;;;;3.33;0.70;;;;;;;;;;4925092;29;20126;-81
2023/04/01 07:16:39;;;;;;;3.25;0.55;;;;;;;;;;4925447;29;20154;-80
2023/04/01 07:19:25;;;;;;;3.65;0.70;;;;;;;;;;4913311;29;20067;-77
2023/04/01 07:22:09;;;;;;;7.35;0.82;;;;;;;;;;4930829;29;20102;-79
2023/04/01 07:25:01;;;;;;;7.45;0.73;;;;;;;;;;4929639;29;20134;-78
2023/04/01 07:27:28;;;;;;;4.18;0.70;;;;;;;;;;4928606;29;20064;-79
2023/04/01 07:30:00;;;;;;;5.95;0.90;;;;;;;;;;4929699;29;20617;-79
2023/04/01 07:32:40;;;;;;;4.35;0.63;;;;;;;;;;4939108;29;20058;-79
2023/04/01 07:35:06;;;;;;;4.47;0.90;;;;;;;;;;4931134;29;20052;-79
2023/04/01 07:37:58;;;;;;;5.97;0.80;;;;;;;;;;4933095;29;20048;-79
2023/04/01 07:40:25;;;;;;;3.95;1.30;;;;;;;;;;4925310;29;20039;-78
2023/04/01 07:42:57;;;;;;;6.28;0.85;;;;;;;;;;4931826;29;20162;-78
2023/04/01 07:45:30;;;;;;;5.97;0.93;;;;;;;;;;4919174;29;20148;-78
2023/04/01 07:48:11;;;;;;;4.32;0.85;;;;;;;;;;4910413;29;20430;-78
2023/04/01 07:50:38;;;;;;;5.15;0.85;;;;;;;;;;4924656;29;20051;-79
2023/04/01 07:53:24;;;;;;;3.47;0.95;;;;;;;;;;4930985;29;20055;-80
2023/04/01 07:56:06;;;;;;;6.10;1.13;;;;;;;;;;4923648;29;20086;-78
2023/04/01 07:58:55;;;;;;;3.40;0.85;;;;;;;;;;4944252;29;20264;-78
2023/04/01 08:01:58;;;;;;;4.85;1.10;;;;;;;;;;4929993;29;20078;-77
2023/04/01 08:04:29;;;;;;;4.15;0.80;;;;;;;;;;4936007;29;20051;-79
2023/04/01 08:07:04;;;;;;;7.35;0.90;;;;;;;;;;4935120;29;20413;-79
2023/04/01 08:09:47;;;;;;;5.47;0.80;;;;;;;;;;4916864;29;20047;-77
2023/04/01 08:12:35;;;;;;;4.95;0.80;;;;;;;;;;4921888;29;20059;-80
2023/04/01 08:15:23;;;;;;;3.88;0.75;;;;;;;;;;4930257;29;20571;-78
2023/04/01 08:18:27;;;;;;;3.22;0.65;;;;;;;;;;4903125;29;20596;-80
2023/04/01 08:20:55;;;;;;;3.65;0.52;;;;;;;;;;4929731;29;20539;-77
2023/04/01 08:23:30;;;;;;;3.60;0.73;;;;;;;;;;4930243;29;20061;-77
2023/04/01 08:26:03;;;;;;;5.00;1.35;;;;;;;;;;4929407;29;20086;-80
2023/04/01 08:28:42;;;;;;;2.38;0.60;;;;;;;;;;4930289;29;20047;-80
2023/04/01 08:31:25;;;;;;;6.03;1.00;;;;;;;;;;4928946;29;20398;-79
2023/04/01 08:33:54;;;;;;;6.10;0.80;;;;;;;;;;4929372;29;20075;-79
2023/04/01 08:36:23;;;;;;;6.88;1.40;;;;;;;;;;4930994;29;20044;-77
2023/04/01 08:39:09;;;;;;;3.78;0.90;;;;;;;;;;4905781;29;20048;-80
2023/04/01 08:41:35;;;;;;;3.53;0.70;;;;;;;;;;4910441;29;20055;-81
2023/04/01 08:44:39;;;;;;;3.50;0.70;;;;;;;;;;4919283;29;20550;-78
2023/04/01 08:47:15;;;;;;;7.38;0.80;;;;;;;;;;4910063;29;20529;-78
2023/04/01 08:49:41;;;;;;;2.33;0.60;;;;;;;;;;4913403;29;20055;-78
2023/04/01 08:52:36;;;;;;;4.13;0.65;;;;;;;;;;4928643;29;20059;-81
2023/04/01 08:55:23;;;;;;;4.45;0.65;;;;;;;;;;4928651;29;20287;-80
2023/04/01 08:58:00;;;;;;;2.70;0.80;;;;;;;;;;4937434;29;20054;-77
2023/04/01 09:01:01;;;;;;;1.58;0.50;;;;;;;;;;4934442;29;20047;-80
2023/04/01 09:03:42;;;;;;;1.05;0.40;;;;;;;;;;4914475;29;20051;-78
2023/04/01 09:06:09;;;;;;;2.65;0.50;;;;;;;;;;4929845;29;20090;-81
2023/04/01 09:08:42;;;;;;;1.60;0.50;;;;;;;;;;4930037;29;20051;-80
2023/04/01 09:11:27;;;;;;;3.65;0.50;;;;;;;;;;4938733;28;20532;-82
2023/04/01 09:14:31;;;;;;;1.23;0.45;;;;;;;;;;4910294;29;20483;-79
2023/04/01 09:17:28;;;;;;;3.88;0.40;;;;;;;;;;4923117;29;20052;-79
2023/04/01 09:20:14;;;;;;;1.13;0.30;;;;;;;;;;4928241;29;20116;-78
2023/04/01 09:23:10;;;;;;;1.98;0.52;;;;;;;;;;4930789;29;20392;-80
2023/04/01 09:25:36;;;;;;;4.55;0.40;;;;;;;;;;4848773;29;20086;-78
2023/04/01 09:28:10;;;;;;;2.50;0.52;;;;;;;;;;4929804;29;20141;-82
2023/04/01 09:30:57;;;;;;;0.88;0.50;;;;;;;;;;4909044;29;20166;-77
2023/04/01 09:33:46;;;;;;;4.05;0.50;;;;;;;;;;4910842;29;20506;-80
2023/04/01 09:36:25;;;;;;;0.85;0.30;;;;;;;;;;4925214;29;20115;-79
2023/04/01 09:38:52;;;;;;;0.57;0.30;;;;;;;;;;4928924;29;20056;-81
2023/04/01 09:41:30;;;;;;;0.75;0.35;;;;;;;;;;4927280;29;20136;-77
2023/04/01 09:44:14;;;;;;;2.30;0.55;;;;;;;;;;4926711;29;20094;-79
2023/04/01 09:46:57;;;;;;;2.30;0.57;;;;;;;;;;4927105;29;20047;-78
2023/04/01 09:49:33;;;;;;;0.80;0.40;;;;;;;;;;4932561;29;20512;-80
2023/04/01 09:52:20;;;;;;;1.70;0.57;;;;;;;;;;4909240;29;20169;-81
2023/04/01 09:54:50;;;;;;;3.30;0.60;;;;;;;;;;4909110;29;20419;-80
2023/04/01 09:57:29;;;;;;;0.88;0.28;;;;;;;;;;4922348;29;20585;-81
2023/04/01 10:00:27;;;;;;;0.68;0.28;;;;;;;;;;4936475;29;20040;-77
2023/04/01 10:03:20;;;;;;;4.47;0.70;;;;;;;;;;4934005;28;20050;-78
2023/04/01 10:05:46;;;;;;;3.22;0.50;;;;;;;;;;4904789;28;20085;-78
2023/04/01 10:08:33;;;;;;;1.00;0.47;;;;;;;;;;4932514;29;20057;-78
2023/04/01 10:11:22;;;;;;;2.17;0.30;;;;;;;;;;4929263;28;20040;-78
2023/04/01 10:13:56;;;;;;;2.65;0.40;;;;;;;;;;4930196;29;20296;-77
2023/04/01 10:16:41;;;;;;;4.05;0.40;;;;;;;;;;4930666;29;20101;-79
2023/04/01 10:19:18;;;;;;;1.13;0.43;;;;;;;;;;4938702;28;20047;-79
2023/04/01 10:22:14;;;;;;;0.90;0.30;;;;;;;;;;4931341;29;20067;-80
2023/04/01 10:25:02;;;;;;;0.85;0.38;;;;;;;;;;4920859;28;20054;-79
2023/04/01 10:27:36;;;;;;;0.70;0.40;;;;;;;;;;4937021;28;20059;-78
2023/04/01 10:30:21;;;;;;;3.03;0.50;;;;;;;;;;4935027;28;20055;-78
2023/04/01 10:32:55;;;;;;;1.67;0.60;;;;;;;;;;4930174;29;20054;-79
2023/04/01 10:35:22;;;;;;;1.05;0.32;;;;;;;;;;4931513;29;20131;-80
2023/04/01 10:38:08;;;;;;;1.25;0.40;;;;;;;;;;4929303;29;20044;-75
2023/04/01 10:40:35;;;;;;;2.35;0.40;;;;;;;;;;4925028;29;20149;-79
2023/04/01 10:43:55;;;;;;;2.20;0.40;;;;;;;;;;4927223;29;20047;-80
2023/04/01 10:46:55;;;;;;;1.48;0.47;;;;;;;;;;4916483;29;20048;-79
2023/04/01 10:49:31;;;;;;;2.60;0.40;;;;;;;;;;4913997;29;20040;-79
2023/04/01 10:52:18;;;;;;;2.28;0.32;;;;;;;;;;4933848;28;20043;-80
2023/04/01 10:55:03;;;;;;;1.50;0.40;;;;;;;;;;4929566;28;20638;-77
2023/04/01 10:58:10;;;;;;;0.98;0.50;;;;;;;;;;4905568;28;20461;-79
2023/04/01 11:00:58;;;;;;;2.33;0.50;;;;;;;;;;4942775;28;20073;-78
2023/04/01 11:03:44;;;;;;;0.93;0.45;;;;;;;;;;4939199;28;20058;-76
2023/04/01 11:06:32;;;;;;;3.60;0.57;;;;;;;;;;4938152;28;20062;-79
2023/04/01 11:09:05;;;;;;;0.93;0.40;;;;;;;;;;4934009;29;20047;-79
2023/04/01 11:11:45;;;;;;;2.42;0.65;;;;;;;;;;4936263;28;20043;-77
2023/04/01 11:14:22;;;;;;;1.85;0.77;;;;;;;;;;4938098;28;20489;-78
2023/04/01 11:16:57;;;;;;;2.92;0.50;;;;;;;;;;4936853;29;20043;-77
2023/04/01 11:19:43;;;;;;;1.70;0.40;;;;;;;;;;4937484;29;20177;-78
2023/04/01 11:22:15;;;;;;;1.40;0.40;;;;;;;;;;4935038;28;20048;-79
2023/04/01 11:25:05;;;;;;;2.35;0.80;;;;;;;;;;4926688;28;20047;-78
2023/04/01 11:27:47;;;;;;;1.00;0.40;;;;;;;;;;4914819;29;20127;-79
2023/04/01 11:30:13;;;;;;;;;;;;;;;;;;4958050;28;20124;-79
2023/04/01 11:32:52;;;;;;;2.03;0.38;;;;;;;;;;4913732;29;19930;-78
2023/04/01 11:35:28;;;;;;;1.85;0.35;;;;;;;;;;4933588;29;20599;-79
2023/04/01 11:37:55;;;;;;;1.10;0.50;;;;;;;;;;4912190;29;20660;-78
2023/04/01 11:40:49;;;;;;;1.27;0.50;;;;;;;;;;4912075;29;20066;-78
2023/04/01 11:43:47;;;;;;;2.08;0.50;;;;;;;;;;4929468;29;20058;-81
2023/04/01 11:46:46;;;;;;;2.33;0.30;;;;;;;;;;4921992;29;20059;-80
2023/04/01 11:49:32;;;;;;;1.60;0.50;;;;;;;;;;4911159;29;20048;-77
2023/04/01 11:52:28;;;;;;;1.60;0.40;;;;;;;;;;4912944;29;20072;-78
2023/04/01 11:55:17;;;;;;;0.60;0.30;;;;;;;;;;4928198;29;20154;-78
2023/04/01 11:57:50;;;;;;;1.15;0.40;;;;;;;;;;4931128;29;20131;-79
2023/04/01 12:00:25;;;;;;;1.77;0.60;;;;;;;;;;4932218;29;20047;-78
2023/04/01 12:02:52;;;;;;;;;;;;;;;;;;4933030;28;20060;-78
2023/04/01 12:05:36;;;;;;;1.13;0.50;;;;;;;;;;4930614;29;20006;-79
2023/04/01 12:08:11;;;;;;;1.40;0.45;;;;;;;;;;4915531;29;20058;-80
2023/04/01 12:10:38;;;;;;;3.67;0.40;;;;;;;;;;4944845;28;20043;-79
2023/04/01 12:13:17;;;;;;;1.98;0.50;;;;;;;;;;4929059;29;20058;-78
2023/04/01 12:15:56;;;;;;;1.05;0.40;;;;;;;;;;4928174;29;20048;-77
2023/04/01 12:18:33;;;;;;;2.22;0.50;;;;;;;;;;4927494;29;20481;-80
2023/04/01 12:21:10;;;;;;;2.75;0.47;;;;;;;;;;4923250;29;20043;-80
2023/04/01 12:23:47;;;;;;;0.98;0.55;;;;;;;;;;4929022;29;20099;-79
2023/04/01 12:26:20;;;;;;;2.42;0.60;;;;;;;;;;4923112;29;20103;-78
2023/04/01 12:29:05;;;;;;;1.10;0.50;;;;;;;;;;4930159;29;20055;-80
2023/04/01 12:31:44;;;;;;;2.33;0.68;;;;;;;;;;4915344;29;20102;-79
2023/04/01 12:34:14;;;;;;;0.77;0.30;;;;;;;;;;4921718;28;20162;-77
2023/04/01 12:36:46;;;;;;;0.93;0.40;;;;;;;;;;4939279;29;20055;-80
2023/04/01 12:39:35;;;;;;;0.93;0.40;;;;;;;;;;4903512;29;20067;-81
2023/04/01 12:42:01;;;;;;;1.42;0.50;;;;;;;;;;4928756;29;20086;-79
2023/04/01 12:44:47;;;;;;;0.68;0.40;;;;;;;;;;4927805;29;20103;-78
2023/04/01 12:47:29;;;;;;;3.00;0.70;;;;;;;;;;4928033;29;20095;-80
2023/04/01 12:50:19;;;;;;;5.03;1.20;;;;;;;;;;4927457;29;20059;-77
2023/04/01 12:52:49;;;;;;;2.58;0.70;;;;;;;;;;4923168;29;20067;-78
2023/04/01 12:55:18;;;;;;;2.65;0.63;;;;;;;;;;4927635;29;20488;-79
2023/04/01 12:57:45;;;;;;;6.30;1.15;;;;;;;;;;4920036;29;20056;-77
2023/04/01 13:00:20;;;;;;;2.25;0.65;;;;;;;;;;4926350;29;20043;-78
2023/04/01 13:02:50;;;;;;;2.30;0.65;;;;;;;;;;4926264;29;20069;-78
2023/04/01 13:05:24;;;;;;;2.33;0.80;;;;;;;;;;4927870;29;20055;-78
2023/04/01 13:07:51;;;;;;;1.85;0.68;;;;;;;;;;4928553;29;20056;-80
2023/04/01 13:10:36;;;;;;;2.30;1.30;;;;;;;;;;4924731;29;20163;-79
2023/04/01 13:13:03;;;;;;;0.98;0.50;;;;;;;;;;4925955;29;20055;-78
2023/04/01 13:15:40;;;;;;;2.33;0.60;;;;;;;;;;4925978;29;20054;-77
2023/04/01 13:18:09;;;;;;;3.05;0.63;;;;;;;;;;4914182;29;20059;-77
2023/04/01 13:20:42;;;;;;;1.95;0.57;;;;;;;;;;4930680;29;20058;-77
2023/04/01 13:23:29;;;;;;;3.13;0.77;;;;;;;;;;4931279;29;20076;-79
2023/04/01 13:26:02;;;;;;;2.95;0.57;;;;;;;;;;4880785;29;20051;-79
2023/04/01 13:28:40;;;;;;;1.67;0.57;;;;;;;;;;4923443;29;20044;-78
2023/04/01 13:31:21;;;;;;;1.30;0.52;;;;;;;;;;4930269;29;20058;-78
2023/04/01 13:33:48;;;;;;;2.72;0.70;;;;;;;;;;4908724;29;20050;-78
2023/04/01 13:36:33;;;;;;;1.55;0.50;;;;;;;;;;4924088;29;20048;-80
2023/04/01 13:39:19;;;;;;;1.33;0.40;;;;;;;;;;4929428;29;20564;-77
2023/04/01 13:42:01;;;;;;;1.55;0.70;;;;;;;;;;4922548;29;20539;-79
2023/04/01 13:44:45;;;;;;;1.30;0.50;;;;;;;;;;4923468;29;20697;-78
2023/04/01 13:47:50;;;;;;;0.90;0.43;;;;;;;;;;4904020;29;20511;-79
2023/04/01 13:50:23;;;;;;;1.17;0.40;;;;;;;;;;4831148;29;20582;-78
2023/04/01 13:53:22;;;;;;;1.27;0.55;;;;;;;;;;4830807;29;20057;-77
2023/04/01 13:56:03;;;;;;;2.92;0.30;;;;;;;;;;4857485;29;20138;-79
2023/04/01 13:58:29;;;;;;;1.23;0.40;;;;;;;;;;4919794;29;20044;-76
2023/04/01 14:01:02;;;;;;;0.90;0.45;;;;;;;;;;4927260;29;20048;-77
2023/04/01 14:03:48;;;;;;;1.45;0.47;;;;;;;;;;4913751;29;20127;-79
2023/04/01 14:06:19;;;;;;;1.35;0.40;;;;;;;;;;4928348;29;20048;-78
2023/04/01 14:08:55;;;;;;;2.10;0.50;;;;;;;;;;4939099;29;20063;-77
2023/04/01 14:11:24;;;;;;;1.20;0.50;;;;;;;;;;4914404;29;20044;-77
2023/04/01 14:14:10;;;;;;;2.28;0.50;;;;;;;;;;4907816;29;20064;-78
2023/04/01 14:16:45;;;;;;;1.65;0.40;;;;;;;;;;4919865;29;20051;-78
2023/04/01 14:19:31;;;;;;;1.60;0.38;;;;;;;;;;4925433;29;20051;-79
2023/04/01 14:22:15;;;;;;;2.65;0.50;;;;;;;;;;4936123;29;20079;-78
2023/04/01 14:24:41;;;;;;;1.05;0.43;;;;;;;;;;4925129;29;20051;-78
2023/04/01 14:27:20;;;;;;;0.88;0.40;;;;;;;;;;4929538;29;20055;-78
2023/04/01 14:29:47;;;;;;;0.80;0.40;;;;;;;;;;4933045;29;20067;-78
2023/04/01 14:32:32;;;;;;;1.55;0.47;;;;;;;;;;4936271;29;20051;-78
2023/04/01 14:35:05;;;;;;;2.05;0.40;;;;;;;;;;4932320;29;20051;-78
2023/04/01 14:37:32;;;;;;;1.98;0.40;;;;;;;;;;4932448;29;20047;-78
2023/04/01 14:40:04;;;;;;;1.33;0.40;;;;;;;;;;4933737;29;20118;-78
2023/04/01 14:42:49;;;;;;;1.38;0.40;;;;;;;;;;4931028;29;20516;-77
2023/04/01 14:45:16;;;;;;;1.23;0.40;;;;;;;;;;4933527;29;20105;-78
2023/04/01 14:47:48;;;;;;;3.80;0.70;;;;;;;;;;4932107;29;20549;-78
2023/04/01 14:50:22;;;;;;;0.70;0.40;;;;;;;;;;4933780;29;20460;-79
2023/04/01 14:53:12;;;;;;;1.35;0.40;;;;;;;;;;4932863;29;20439;-78
2023/04/01 14:55:39;;;;;;;1.25;0.50;;;;;;;;;;4921785;29;20081;-78
2023/04/01 14:58:27;;;;;;;2.13;0.47;;;;;;;;;;4924173;29;20383;-78
2023/04/01 15:01:02;;;;;;;1.20;0.50;;;;;;;;;;4937390;29;20039;-78
2023/04/01 15:03:35;;;;;;;0.80;0.30;;;;;;;;;;4945222;28;20035;-78
2023/04/01 15:06:20;;;;;;;1.40;0.43;;;;;;;;;;4940847;29;20510;-78
2023/04/01 15:08:50;;;;;;;2.72;0.45;;;;;;;;;;4935516;28;20040;-77
2023/04/01 15:11:23;;;;;;;2.00;0.40;;;;;;;;;;4932072;29;20048;-78
2023/04/01 15:14:08;;;;;;;0.88;0.45;;;;;;;;;;4928445;29;20077;-77
2023/04/01 15:16:54;;;;;;;1.23;0.50;;;;;;;;;;4930062;29;20135;-77
2023/04/01 15:19:20;;;;;;;2.53;0.50;;;;;;;;;;4930952;29;20135;-77
2023/04/01 15:21:53;;;;;;;1.85;0.50;;;;;;;;;;4932391;29;20075;-78
2023/04/01 15:24:38;;;;;;;0.82;0.45;;;;;;;;;;4932153;29;20059;-76
2023/04/01 15:27:11;;;;;;;3.43;0.60;;;;;;;;;;4930607;29;20151;-77
2023/04/01 15:29:54;;;;;;;1.85;0.40;;;;;;;;;;4922652;29;20048;-76
2023/04/01 15:32:40;;;;;;;1.40;0.60;;;;;;;;;;4933479;29;20130;-77
2023/04/01 15:35:25;;;;;;;3.17;0.95;;;;;;;;;;4934132;29;20048;-76